Time;durP1;ratioP1;P1;durP2;ratioP2;P2;SDS_P1;SDS_P2;PMS_P1;PMS_P2;Temp;Humidity;BMP_temperature;BMP_pressure;BME280_temperature;BME280_humidity;BME280_pressure;Samples;Min_cycle;Max_cycle;Signal;HPM_P1;HPM_P2
2022/07/19 00:02:06;;;;;;;;;10.25;9.75;;;;;;;;5040511;28;51935;-65
2022/07/19 00:04:32;;;;;;;;;8.50;8.50;;;;;;;;5031198;28;51103;-62
2022/07/19 00:06:57;;;;;;;;;8.00;8.00;;;;;;;;5032586;28;51075;-62
2022/07/19 00:09:23;;;;;;;;;8.67;8.67;;;;;;;;5033151;28;51089;-63
2022/07/19 00:11:49;;;;;;;;;9.00;7.50;;;;;;;;5031933;28;51102;-62
2022/07/19 00:14:14;;;;;;;;;7.75;7.00;;;;;;;;5030161;28;51116;-63
2022/07/19 00:16:39;;;;;;;;;8.25;7.25;;;;;;;;5033774;28;51281;-63
2022/07/19 00:19:04;;;;;;;;;9.50;9.50;;;;;;;;5032723;28;51001;-61
2022/07/19 00:21:30;;;;;;;;;8.00;7.33;;;;;;;;5033243;28;51182;-62
2022/07/19 00:23:55;;;;;;;;;9.00;8.00;;;;;;;;5031640;28;52728;-62
2022/07/19 00:26:20;;;;;;;;;8.33;7.33;;;;;;;;5014473;28;50848;-63
2022/07/19 00:28:45;;;;;;;;;8.00;7.00;;;;;;;;5033023;28;50864;-62
2022/07/19 00:31:10;;;;;;;;;7.00;7.00;;;;;;;;5013424;28;51496;-62
2022/07/19 00:33:36;;;;;;;;;7.00;7.00;;;;;;;;5031461;28;52396;-64
2022/07/19 00:36:01;;;;;;;;;6.33;6.00;;;;;;;;5031073;28;51029;-62
2022/07/19 00:38:26;;;;;;;;;8.00;7.00;;;;;;;;5026959;28;51448;-63
2022/07/19 00:40:51;;;;;;;;;6.00;6.00;;;;;;;;5014937;28;51304;-63
2022/07/19 00:43:17;;;;;;;;;5.00;5.00;;;;;;;;5032510;28;51755;-63
2022/07/19 00:45:42;;;;;;;;;7.33;7.33;;;;;;;;5027512;28;51078;-62
2022/07/19 00:48:07;;;;;;;;;6.00;5.00;;;;;;;;5031585;28;51727;-63
2022/07/19 00:50:33;;;;;;;;;7.33;6.00;;;;;;;;5032640;28;51153;-62
2022/07/19 00:53:04;;;;;;;;;6.67;6.00;;;;;;;;5031963;28;50934;-62
2022/07/19 00:55:30;;;;;;;;;6.33;6.00;;;;;;;;5032248;28;51250;-63
2022/07/19 00:57:56;;;;;;;;;5.67;5.33;;;;;;;;5030382;28;51020;-62
2022/07/19 01:00:22;;;;;;;;;5.00;5.00;;;;;;;;5031571;28;51010;-62
2022/07/19 01:02:47;;;;;;;;;7.00;6.67;;;;;;;;5030404;28;51128;-63
2022/07/19 01:05:12;;;;;;;;;6.33;6.33;;;;;;;;5031962;28;50893;-62
2022/07/19 01:07:41;;;;;;;;;8.33;8.00;;;;;;;;5032476;28;50879;-64
2022/07/19 01:10:07;;;;;;;;;9.33;8.33;;;;;;;;5013842;28;51030;-62
2022/07/19 01:12:33;;;;;;;;;7.33;6.33;;;;;;;;5031534;28;51094;-63
2022/07/19 01:14:59;;;;;;;;;8.67;7.67;;;;;;;;5014413;28;51011;-63
2022/07/19 01:17:24;;;;;;;;;8.33;7.67;;;;;;;;5013184;28;51411;-62
2022/07/19 01:19:50;;;;;;;;;8.25;7.75;;;;;;;;5032571;28;50983;-62
2022/07/19 01:22:15;;;;;;;;;7.00;7.00;;;;;;;;5030164;28;52621;-62
2022/07/19 01:24:40;;;;;;;;;5.00;4.33;;;;;;;;5013860;28;51104;-63
2022/07/19 01:27:06;;;;;;;;;7.00;7.00;;;;;;;;5032049;28;51113;-63
2022/07/19 01:29:31;;;;;;;;;7.00;7.00;;;;;;;;5024220;28;51287;-62
2022/07/19 01:31:57;;;;;;;;;7.00;7.00;;;;;;;;5031296;28;51217;-62
2022/07/19 01:34:22;;;;;;;;;7.67;7.67;;;;;;;;5032321;28;50963;-62
2022/07/19 01:36:47;;;;;;;;;7.33;7.33;;;;;;;;5027527;28;51147;-62
2022/07/19 01:39:12;;;;;;;;;7.67;6.00;;;;;;;;5031736;28;51343;-63
2022/07/19 01:41:37;;;;;;;;;8.00;7.00;;;;;;;;5007774;28;53085;-63
2022/07/19 01:44:03;;;;;;;;;7.33;7.33;;;;;;;;5031095;28;51100;-63
2022/07/19 01:46:28;;;;;;;;;8.00;8.00;;;;;;;;5029595;28;51689;-62
2022/07/19 01:48:53;;;;;;;;;7.67;7.67;;;;;;;;5033152;28;50908;-63
2022/07/19 01:51:18;;;;;;;;;6.00;6.00;;;;;;;;5034114;28;52277;-63
2022/07/19 01:53:43;;;;;;;;;6.67;6.00;;;;;;;;5034263;28;50840;-62
2022/07/19 01:56:09;;;;;;;;;6.00;5.00;;;;;;;;5035127;28;51064;-63
2022/07/19 01:58:34;;;;;;;;;5.67;5.67;;;;;;;;5016475;28;51115;-62
2022/07/19 02:00:59;;;;;;;;;5.00;5.00;;;;;;;;5034318;28;52031;-62
2022/07/19 02:03:24;;;;;;;;;6.00;6.00;;;;;;;;5035219;28;51522;-62
2022/07/19 02:05:50;;;;;;;;;5.33;5.33;;;;;;;;5035197;28;51186;-62
2022/07/19 02:08:15;;;;;;;;;6.00;5.33;;;;;;;;5016432;28;51019;-62
2022/07/19 02:10:40;;;;;;;;;6.00;6.00;;;;;;;;5032270;28;52044;-64
2022/07/19 02:13:05;;;;;;;;;5.00;5.00;;;;;;;;5016015;28;51215;-63
2022/07/19 02:15:31;;;;;;;;;5.33;5.00;;;;;;;;5036369;28;51217;-62
2022/07/19 02:17:56;;;;;;;;;4.33;4.00;;;;;;;;5042265;28;51115;-64
2022/07/19 02:20:22;;;;;;;;;6.33;6.33;;;;;;;;5034156;28;51215;-63
2022/07/19 02:22:47;;;;;;;;;6.33;6.00;;;;;;;;5033937;28;50929;-63
2022/07/19 02:25:12;;;;;;;;;7.33;7.00;;;;;;;;5034351;28;52053;-64
2022/07/19 02:27:37;;;;;;;;;8.00;7.00;;;;;;;;5033039;28;51210;-63
2022/07/19 02:30:03;;;;;;;;;6.00;5.00;;;;;;;;5034469;28;51700;-62
2022/07/19 02:32:29;;;;;;;;;8.00;6.33;;;;;;;;5027035;28;51154;-62
2022/07/19 02:34:54;;;;;;;;;8.33;8.00;;;;;;;;5035104;28;50876;-64
2022/07/19 02:37:19;;;;;;;;;7.67;7.00;;;;;;;;5016343;28;51302;-62
2022/07/19 02:39:45;;;;;;;;;6.33;6.33;;;;;;;;5033796;28;51077;-63
2022/07/19 02:42:10;;;;;;;;;10.67;9.67;;;;;;;;5032098;28;51175;-64
2022/07/19 02:44:35;;;;;;;;;7.33;6.33;;;;;;;;5034231;28;50970;-64
2022/07/19 02:47:00;;;;;;;;;7.25;7.00;;;;;;;;5035070;28;51376;-63
2022/07/19 02:49:26;;;;;;;;;8.00;6.00;;;;;;;;5034289;28;51105;-62
2022/07/19 02:51:51;;;;;;;;;7.33;6.67;;;;;;;;5033846;28;51105;-63
2022/07/19 02:54:16;;;;;;;;;7.67;7.00;;;;;;;;5015269;28;50967;-62
2022/07/19 02:56:41;;;;;;;;;8.67;8.00;;;;;;;;5033985;28;51142;-63
2022/07/19 02:59:07;;;;;;;;;7.33;7.33;;;;;;;;5014227;28;53931;-62
2022/07/19 03:01:32;;;;;;;;;7.00;7.00;;;;;;;;5034193;28;51052;-62
2022/07/19 03:03:58;;;;;;;;;7.00;6.67;;;;;;;;5033988;28;51353;-62
2022/07/19 03:06:23;;;;;;;;;8.33;7.67;;;;;;;;5032893;28;51262;-62
2022/07/19 03:08:48;;;;;;;;;7.00;7.00;;;;;;;;5033874;28;52011;-62
2022/07/19 03:11:13;;;;;;;;;5.67;5.33;;;;;;;;5033221;28;51230;-62
2022/07/19 03:13:38;;;;;;;;;10.00;8.00;;;;;;;;5033295;28;51240;-62
2022/07/19 03:16:04;;;;;;;;;8.50;7.25;;;;;;;;5033449;28;50963;-62
2022/07/19 03:18:29;;;;;;;;;8.00;7.67;;;;;;;;5032259;28;53048;-62
2022/07/19 03:20:55;;;;;;;;;7.00;7.00;;;;;;;;5032450;28;50941;-62
2022/07/19 03:23:20;;;;;;;;;7.67;7.33;;;;;;;;5015583;28;51186;-62
2022/07/19 03:25:45;;;;;;;;;9.67;8.00;;;;;;;;5033982;28;51171;-62
2022/07/19 03:28:10;;;;;;;;;9.00;7.00;;;;;;;;5033333;28;52410;-62
2022/07/19 03:30:35;;;;;;;;;7.33;6.67;;;;;;;;5027168;28;51790;-62
2022/07/19 03:33:01;;;;;;;;;9.00;9.00;;;;;;;;5030639;28;51420;-61
2022/07/19 03:35:26;;;;;;;;;9.00;7.67;;;;;;;;5033308;28;51103;-62
2022/07/19 03:37:51;;;;;;;;;10.67;9.00;;;;;;;;5032698;28;51126;-62
2022/07/19 03:40:17;;;;;;;;;7.00;7.00;;;;;;;;5033718;28;51190;-64
2022/07/19 03:42:42;;;;;;;;;9.00;8.00;;;;;;;;5025373;28;51195;-62
2022/07/19 03:45:07;;;;;;;;;12.00;12.00;;;;;;;;5033619;28;51128;-62
2022/07/19 03:47:33;;;;;;;;;11.33;10.67;;;;;;;;5032488;28;52419;-62
2022/07/19 03:49:58;;;;;;;;;10.75;10.75;;;;;;;;5030627;28;51234;-62
2022/07/19 03:52:23;;;;;;;;;11.00;10.75;;;;;;;;5032971;28;51159;-63
2022/07/19 03:54:49;;;;;;;;;10.75;10.75;;;;;;;;5032710;28;50952;-63
2022/07/19 03:57:14;;;;;;;;;12.00;11.25;;;;;;;;5033063;28;52015;-63
2022/07/19 03:59:39;;;;;;;;;14.00;11.75;;;;;;;;5033175;28;51337;-61
2022/07/19 04:02:04;;;;;;;;;14.00;13.25;;;;;;;;5023328;28;51007;-61
2022/07/19 04:04:29;;;;;;;;;12.50;11.50;;;;;;;;5033474;28;51101;-62
2022/07/19 04:06:55;;;;;;;;;12.75;11.75;;;;;;;;5024883;28;51873;-61
2022/07/19 04:09:20;;;;;;;;;11.00;10.00;;;;;;;;5030210;28;51158;-62
2022/07/19 04:11:45;;;;;;;;;11.00;11.00;;;;;;;;5032099;28;50895;-63
2022/07/19 04:14:10;;;;;;;;;12.00;11.00;;;;;;;;5030160;28;51209;-62
2022/07/19 04:16:35;;;;;;;;;9.75;9.75;;;;;;;;5033833;28;50854;-62
2022/07/19 04:19:01;;;;;;;;;9.25;9.25;;;;;;;;5030727;28;51068;-62
2022/07/19 04:21:26;;;;;;;;;10.33;9.33;;;;;;;;5032680;28;51121;-62
2022/07/19 04:23:52;;;;;;;;;9.75;9.75;;;;;;;;5014041;28;51215;-62
2022/07/19 04:26:17;;;;;;;;;9.00;9.00;;;;;;;;5031298;28;51150;-62
2022/07/19 04:28:42;;;;;;;;;10.00;9.00;;;;;;;;5033034;28;50835;-62
2022/07/19 04:31:07;;;;;;;;;16.25;15.00;;;;;;;;5031334;28;51163;-62
2022/07/19 04:33:32;;;;;;;;;7.50;7.50;;;;;;;;5032780;28;51058;-61
2022/07/19 04:35:58;;;;;;;;;10.00;10.00;;;;;;;;5031735;28;51266;-61
2022/07/19 04:38:23;;;;;;;;;9.75;9.50;;;;;;;;5032419;28;50885;-63
2022/07/19 04:40:48;;;;;;;;;10.00;10.00;;;;;;;;5031341;28;51160;-62
2022/07/19 04:43:15;;;;;;;;;11.00;11.00;;;;;;;;5031655;28;51040;-61
2022/07/19 04:45:41;;;;;;;;;12.50;12.00;;;;;;;;5014125;28;52124;-62
2022/07/19 04:48:07;;;;;;;;;9.00;8.33;;;;;;;;5031990;28;51085;-62
2022/07/19 04:50:32;;;;;;;;;10.00;10.00;;;;;;;;5032221;28;51641;-63
2022/07/19 04:52:57;;;;;;;;;8.67;8.00;;;;;;;;5014638;28;51214;-63
2022/07/19 04:55:23;;;;;;;;;8.00;8.00;;;;;;;;5031045;28;52245;-63
2022/07/19 04:57:48;;;;;;;;;9.00;9.00;;;;;;;;5030200;28;51069;-63
2022/07/19 05:00:13;;;;;;;;;8.67;7.67;;;;;;;;5015044;28;51259;-63
2022/07/19 05:02:38;;;;;;;;;10.33;10.00;;;;;;;;5033961;28;51164;-63
2022/07/19 05:05:04;;;;;;;;;11.67;9.67;;;;;;;;5032385;28;51832;-63
2022/07/19 05:07:29;;;;;;;;;9.33;9.33;;;;;;;;5031104;28;51076;-63
2022/07/19 05:09:55;;;;;;;;;10.33;10.00;;;;;;;;5014778;28;51056;-62
2022/07/19 05:12:20;;;;;;;;;7.00;6.33;;;;;;;;5032261;28;51122;-63
2022/07/19 05:14:45;;;;;;;;;11.67;11.00;;;;;;;;5029147;28;51683;-63
2022/07/19 05:17:10;;;;;;;;;10.00;10.00;;;;;;;;5041834;28;50845;-63
2022/07/19 05:19:36;;;;;;;;;9.33;9.33;;;;;;;;5025646;28;51347;-63
2022/07/19 05:22:01;;;;;;;;;10.00;9.25;;;;;;;;5032065;28;51223;-62
2022/07/19 05:24:26;;;;;;;;;10.00;10.00;;;;;;;;5035694;28;51603;-63
2022/07/19 05:26:51;;;;;;;;;9.25;9.25;;;;;;;;5034947;28;51188;-62
2022/07/19 05:29:16;;;;;;;;;10.67;10.33;;;;;;;;5034046;28;51053;-62
2022/07/19 05:31:42;;;;;;;;;9.67;9.67;;;;;;;;5034852;28;51176;-62
2022/07/19 05:34:07;;;;;;;;;13.00;11.00;;;;;;;;5035033;28;52157;-63
2022/07/19 05:36:32;;;;;;;;;10.67;10.67;;;;;;;;5034606;28;51031;-63
2022/07/19 05:38:57;;;;;;;;;10.00;10.00;;;;;;;;5026587;28;51373;-63
2022/07/19 05:41:23;;;;;;;;;13.00;13.00;;;;;;;;5031324;28;51330;-63
2022/07/19 05:43:49;;;;;;;;;11.00;11.00;;;;;;;;5031218;28;51708;-63
2022/07/19 05:46:14;;;;;;;;;11.50;10.00;;;;;;;;5012925;28;51219;-62
2022/07/19 05:48:40;;;;;;;;;10.25;10.25;;;;;;;;5030410;28;51446;-63
2022/07/19 05:51:05;;;;;;;;;10.33;10.33;;;;;;;;5031509;28;51191;-63
2022/07/19 05:53:31;;;;;;;;;10.00;10.00;;;;;;;;5032118;28;51182;-63
2022/07/19 05:55:56;;;;;;;;;10.00;10.00;;;;;;;;5029801;28;51115;-63
2022/07/19 05:58:22;;;;;;;;;11.00;10.33;;;;;;;;5033172;28;51414;-62
2022/07/19 06:03:31;;;;;;;;;10.67;9.33;;;;;;;;5021810;28;51193;-62
2022/07/19 06:05:56;;;;;;;;;9.00;9.00;;;;;;;;5023069;28;51199;-62
2022/07/19 06:08:22;;;;;;;;;9.67;9.67;;;;;;;;5034122;28;51013;-62
2022/07/19 06:10:47;;;;;;;;;15.00;13.00;;;;;;;;5033135;28;51072;-63
2022/07/19 06:13:12;;;;;;;;;12.50;12.25;;;;;;;;5033288;28;51282;-63
2022/07/19 06:15:37;;;;;;;;;11.75;11.25;;;;;;;;5029509;28;51186;-63
2022/07/19 06:18:03;;;;;;;;;12.67;11.67;;;;;;;;5032635;28;51295;-63
2022/07/19 06:20:28;;;;;;;;;11.25;10.25;;;;;;;;5033090;28;51207;-62
2022/07/19 06:22:53;;;;;;;;;14.00;11.00;;;;;;;;5014065;28;52952;-63
2022/07/19 06:25:18;;;;;;;;;12.00;10.50;;;;;;;;5033671;28;51032;-63
2022/07/19 06:27:45;;;;;;;;;12.75;11.75;;;;;;;;5031624;28;51723;-63
2022/07/19 06:30:10;;;;;;;;;12.50;12.00;;;;;;;;5032550;28;50892;-63
2022/07/19 06:32:35;;;;;;;;;16.75;15.75;;;;;;;;5032214;28;51141;-63
2022/07/19 06:35:00;;;;;;;;;11.25;11.25;;;;;;;;5032780;28;50909;-63
2022/07/19 06:37:26;;;;;;;;;11.50;11.25;;;;;;;;5033763;28;50840;-63
2022/07/19 06:39:51;;;;;;;;;12.00;11.25;;;;;;;;5032418;28;51098;-63
2022/07/19 06:42:16;;;;;;;;;11.00;10.33;;;;;;;;5028702;28;51890;-63
2022/07/19 06:44:41;;;;;;;;;12.50;12.50;;;;;;;;5030717;28;51292;-65
2022/07/19 06:47:07;;;;;;;;;7.00;7.00;;;;;;;;5033399;28;51339;-63
2022/07/19 06:49:32;;;;;;;;;11.33;11.33;;;;;;;;5034318;28;51051;-63
2022/07/19 06:51:57;;;;;;;;;10.75;10.25;;;;;;;;5032896;28;52680;-62
2022/07/19 06:54:22;;;;;;;;;11.75;10.00;;;;;;;;5032933;28;51140;-63
2022/07/19 06:56:48;;;;;;;;;13.75;13.00;;;;;;;;5032208;28;50937;-62
2022/07/19 06:59:13;;;;;;;;;14.00;13.00;;;;;;;;5034024;28;51793;-62
2022/07/19 07:01:38;;;;;;;;;11.75;11.50;;;;;;;;5043779;28;51109;-62
2022/07/19 07:04:03;;;;;;;;;13.00;12.50;;;;;;;;5015769;28;51016;-63
2022/07/19 07:06:29;;;;;;;;;14.75;11.75;;;;;;;;5032813;28;50991;-63
2022/07/19 07:08:54;;;;;;;;;13.00;12.00;;;;;;;;5033713;28;50977;-63
2022/07/19 07:11:19;;;;;;;;;13.00;12.25;;;;;;;;5033124;28;50891;-63
2022/07/19 07:13:44;;;;;;;;;11.25;10.75;;;;;;;;5033426;28;50914;-63
2022/07/19 07:16:09;;;;;;;;;11.75;11.75;;;;;;;;5032336;28;51271;-63
2022/07/19 07:18:35;;;;;;;;;10.50;10.50;;;;;;;;4994588;28;51249;-62
2022/07/19 07:21:00;;;;;;;;;11.00;11.00;;;;;;;;5032195;28;51164;-62
2022/07/19 07:23:25;;;;;;;;;12.25;12.25;;;;;;;;5033429;28;51171;-62
2022/07/19 07:25:53;;;;;;;;;12.50;12.25;;;;;;;;5033274;28;51050;-64
2022/07/19 07:28:18;;;;;;;;;11.50;11.50;;;;;;;;5033707;28;51063;-63
2022/07/19 07:30:44;;;;;;;;;12.50;12.50;;;;;;;;5030575;28;53232;-62
2022/07/19 07:33:09;;;;;;;;;13.75;13.75;;;;;;;;5033237;28;51013;-63
2022/07/19 07:35:34;;;;;;;;;11.00;10.50;;;;;;;;5033345;28;51068;-63
2022/07/19 07:37:59;;;;;;;;;12.75;11.50;;;;;;;;5033305;28;51263;-63
2022/07/19 07:40:25;;;;;;;;;11.75;11.75;;;;;;;;5033254;28;51716;-63
2022/07/19 07:42:50;;;;;;;;;12.75;12.50;;;;;;;;5031954;28;51069;-63
2022/07/19 07:45:15;;;;;;;;;13.00;12.25;;;;;;;;5032323;28;51160;-63
2022/07/19 07:47:40;;;;;;;;;13.25;12.75;;;;;;;;5030673;28;51328;-63
2022/07/19 07:50:06;;;;;;;;;12.50;12.50;;;;;;;;5032867;28;51174;-64
2022/07/19 07:52:31;;;;;;;;;11.75;11.75;;;;;;;;5011305;28;51013;-63
2022/07/19 07:54:56;;;;;;;;;12.25;11.25;;;;;;;;5005376;28;51176;-64
2022/07/19 07:57:22;;;;;;;;;13.50;13.25;;;;;;;;5012797;28;50975;-64
2022/07/19 07:59:47;;;;;;;;;12.50;11.50;;;;;;;;5012686;28;51021;-64
2022/07/19 08:02:12;;;;;;;;;17.50;16.50;;;;;;;;5012861;28;51046;-64
2022/07/19 08:04:37;;;;;;;;;11.50;11.50;;;;;;;;5013028;28;50912;-62
2022/07/19 08:07:02;;;;;;;;;12.75;11.75;;;;;;;;5012539;28;51015;-63
2022/07/19 08:09:28;;;;;;;;;12.50;11.25;;;;;;;;5012804;28;51859;-63
2022/07/19 08:11:53;;;;;;;;;14.50;11.75;;;;;;;;5012923;28;50951;-63
2022/07/19 08:14:18;;;;;;;;;14.00;13.00;;;;;;;;5004752;28;50930;-63
2022/07/19 08:16:44;;;;;;;;;19.25;19.25;;;;;;;;5012722;28;51128;-63
2022/07/19 08:19:09;;;;;;;;;13.75;13.75;;;;;;;;5011504;28;51793;-63
2022/07/19 08:21:34;;;;;;;;;14.00;14.00;;;;;;;;5012394;28;50934;-63
2022/07/19 08:23:59;;;;;;;;;13.50;13.00;;;;;;;;5012017;28;51111;-63
2022/07/19 08:26:25;;;;;;;;;10.75;10.75;;;;;;;;5012694;28;51008;-63
2022/07/19 08:28:50;;;;;;;;;11.00;11.00;;;;;;;;5012520;28;51783;-63
2022/07/19 08:31:15;;;;;;;;;14.75;13.75;;;;;;;;5009707;28;51014;-63
2022/07/19 08:33:41;;;;;;;;;11.75;11.75;;;;;;;;5011492;28;51058;-63
2022/07/19 08:36:06;;;;;;;;;12.25;12.00;;;;;;;;5012723;28;51046;-64
2022/07/19 08:38:31;;;;;;;;;13.75;13.75;;;;;;;;5010827;28;51890;-64
2022/07/19 08:40:59;;;;;;;;;11.00;9.50;;;;;;;;5011291;28;50987;-63
2022/07/19 08:43:25;;;;;;;;;11.00;10.50;;;;;;;;5006060;28;51132;-63
2022/07/19 08:45:51;;;;;;;;;11.75;9.50;;;;;;;;5011677;28;51361;-62
2022/07/19 08:48:17;;;;;;;;;13.25;12.50;;;;;;;;5011277;28;50904;-63
2022/07/19 08:50:44;;;;;;;;;11.00;11.00;;;;;;;;5010611;28;50908;-63
2022/07/19 08:53:09;;;;;;;;;11.75;10.50;;;;;;;;5028423;28;51007;-63
2022/07/19 08:55:34;;;;;;;;;13.00;12.00;;;;;;;;5031367;28;51133;-63
2022/07/19 08:58:02;;;;;;;;;10.75;10.75;;;;;;;;5031382;28;50935;-64
2022/07/19 09:00:29;;;;;;;;;10.00;10.00;;;;;;;;5035197;28;51119;-63
2022/07/19 09:02:54;;;;;;;;;13.00;11.25;;;;;;;;5034452;28;50986;-64
2022/07/19 09:05:20;;;;;;;;;12.25;12.25;;;;;;;;5031376;28;51268;-65
2022/07/19 09:07:59;;;;;;;;;13.25;12.50;;;;;;;;5030665;28;50909;-64
2022/07/19 09:10:24;;;;;;;;;10.00;10.00;;;;;;;;5031975;28;50879;-62
2022/07/19 09:13:07;;;;;;;;;10.00;9.75;;;;;;;;5013731;28;51054;-65
2022/07/19 09:15:42;;;;;;;;;10.00;9.25;;;;;;;;5032145;28;51141;-63
2022/07/19 09:18:09;;;;;;;;;8.50;8.50;;;;;;;;5033586;28;51616;-63
2022/07/19 09:20:34;;;;;;;;;11.75;11.00;;;;;;;;5031721;28;51052;-63
2022/07/19 09:23:00;;;;;;;;;10.25;9.50;;;;;;;;5030117;28;51636;-63
2022/07/19 09:25:39;;;;;;;;;13.25;10.75;;;;;;;;5030943;28;51119;-63
2022/07/19 09:28:05;;;;;;;;;11.25;11.25;;;;;;;;5031165;28;51866;-63
2022/07/19 09:30:36;;;;;;;;;18.00;16.00;;;;;;;;5031103;28;50833;-63
2022/07/19 09:33:22;;;;;;;;;11.00;11.00;;;;;;;;5031471;28;51057;-63
2022/07/19 09:35:48;;;;;;;;;9.75;9.50;;;;;;;;5031030;28;50929;-63
2022/07/19 09:38:15;;;;;;;;;10.50;9.75;;;;;;;;5029170;28;51197;-64
2022/07/19 09:40:40;;;;;;;;;10.00;10.00;;;;;;;;5027557;28;52796;-64
2022/07/19 09:43:05;;;;;;;;;12.00;11.50;;;;;;;;5028409;28;52279;-63
2022/07/19 09:45:32;;;;;;;;;11.25;11.25;;;;;;;;5031823;28;50985;-64
2022/07/19 09:47:58;;;;;;;;;10.75;10.00;;;;;;;;5031096;28;51103;-63
2022/07/19 09:50:24;;;;;;;;;10.75;10.50;;;;;;;;5030309;28;50974;-64
2022/07/19 09:52:51;;;;;;;;;11.00;10.50;;;;;;;;5031007;28;51021;-64
2022/07/19 09:55:17;;;;;;;;;10.00;10.00;;;;;;;;5030176;28;51308;-63
2022/07/19 09:57:44;;;;;;;;;11.50;11.50;;;;;;;;5031009;28;52155;-64
2022/07/19 10:00:11;;;;;;;;;19.00;18.50;;;;;;;;5013772;28;51117;-64
2022/07/19 10:02:37;;;;;;;;;13.75;12.75;;;;;;;;5038975;28;51769;-63
2022/07/19 10:05:06;;;;;;;;;10.00;10.00;;;;;;;;5031115;28;51105;-63
2022/07/19 10:07:32;;;;;;;;;11.00;11.00;;;;;;;;5030880;28;53438;-64
2022/07/19 10:10:00;;;;;;;;;11.00;11.00;;;;;;;;5032953;28;50943;-63
2022/07/19 10:12:25;;;;;;;;;9.75;9.75;;;;;;;;5032001;28;51205;-63
2022/07/19 10:14:50;;;;;;;;;9.75;9.75;;;;;;;;5034521;28;51077;-63
2022/07/19 10:17:42;;;;;;;;;15.25;15.00;;;;;;;;5044357;28;51379;-64
2022/07/19 10:20:08;;;;;;;;;12.75;11.75;;;;;;;;5018151;28;51216;-62
2022/07/19 10:22:34;;;;;;;;;10.75;10.25;;;;;;;;4995389;28;51708;-63
2022/07/19 10:25:09;;;;;;;;;8.25;7.50;;;;;;;;5011222;28;51165;-63
2022/07/19 10:27:42;;;;;;;;;10.25;10.00;;;;;;;;5033759;28;51183;-64
2022/07/19 10:30:07;;;;;;;;;9.00;8.75;;;;;;;;5032097;28;50982;-63
2022/07/19 10:32:32;;;;;;;;;10.25;10.00;;;;;;;;5032721;28;50968;-63
2022/07/19 10:35:16;;;;;;;;;10.25;9.75;;;;;;;;5033701;28;51296;-63
2022/07/19 10:37:42;;;;;;;;;9.25;9.25;;;;;;;;5034486;28;51914;-64
2022/07/19 10:40:08;;;;;;;;;10.75;10.00;;;;;;;;5033984;28;51026;-63
2022/07/19 10:42:33;;;;;;;;;10.00;10.00;;;;;;;;5032035;28;51032;-63
2022/07/19 10:45:01;;;;;;;;;9.50;9.00;;;;;;;;5034064;28;51522;-63
2022/07/19 10:47:26;;;;;;;;;11.00;11.00;;;;;;;;5031348;28;51154;-63
2022/07/19 10:49:51;;;;;;;;;12.25;10.25;;;;;;;;5033616;28;50890;-63
2022/07/19 10:52:29;;;;;;;;;15.75;14.50;;;;;;;;5014475;28;50982;-64
2022/07/19 10:55:12;;;;;;;;;10.25;9.25;;;;;;;;5033851;28;51408;-63
2022/07/19 10:57:38;;;;;;;;;12.00;11.50;;;;;;;;5033379;28;52046;-62
2022/07/19 11:00:19;;;;;;;;;10.25;10.25;;;;;;;;5033538;28;51119;-66
2022/07/19 11:02:45;;;;;;;;;8.50;8.50;;;;;;;;5026174;28;51246;-63
2022/07/19 11:05:23;;;;;;;;;11.50;11.50;;;;;;;;5032222;28;50890;-63
2022/07/19 11:07:49;;;;;;;;;10.75;10.75;;;;;;;;5033169;28;52174;-63
2022/07/19 11:10:20;;;;;;;;;10.25;9.75;;;;;;;;5033585;28;51021;-63
2022/07/19 11:12:46;;;;;;;;;10.00;10.00;;;;;;;;5033473;28;51039;-64
2022/07/19 11:15:12;;;;;;;;;10.75;10.50;;;;;;;;5014705;28;51125;-63
2022/07/19 11:17:37;;;;;;;;;10.00;9.00;;;;;;;;5023355;28;51061;-63
2022/07/19 11:20:07;;;;;;;;;7.75;7.75;;;;;;;;5031246;28;51007;-62
2022/07/19 11:22:51;;;;;;;;;13.25;12.50;;;;;;;;5033369;28;51100;-63
2022/07/19 11:25:23;;;;;;;;;10.00;10.00;;;;;;;;5033403;28;51220;-63
2022/07/19 11:27:48;;;;;;;;;10.50;10.50;;;;;;;;5025473;28;51111;-63
2022/07/19 11:30:14;;;;;;;;;10.25;10.25;;;;;;;;5033467;28;51745;-64
2022/07/19 11:32:43;;;;;;;;;12.00;11.00;;;;;;;;5032866;28;51037;-62
2022/07/19 11:35:09;;;;;;;;;8.50;8.25;;;;;;;;5033365;28;51225;-63
2022/07/19 11:37:35;;;;;;;;;9.50;9.25;;;;;;;;5029140;28;51375;-63
2022/07/19 11:40:01;;;;;;;;;6.50;6.25;;;;;;;;5033002;28;50915;-62
2022/07/19 11:42:47;;;;;;;;;9.00;9.00;;;;;;;;5028960;28;51084;-63
2022/07/19 11:45:17;;;;;;;;;12.50;11.00;;;;;;;;5031056;28;51146;-63
2022/07/19 11:47:47;;;;;;;;;11.00;11.00;;;;;;;;5031433;28;51993;-64
2022/07/19 11:50:13;;;;;;;;;9.25;8.25;;;;;;;;5020977;28;50879;-64
2022/07/19 11:52:49;;;;;;;;;7.25;6.25;;;;;;;;5042142;28;50904;-62
2022/07/19 11:55:15;;;;;;;;;11.00;10.00;;;;;;;;5031375;28;51442;-64
2022/07/19 11:57:40;;;;;;;;;12.00;11.00;;;;;;;;5032262;28;51116;-62
2022/07/19 12:00:07;;;;;;;;;8.00;7.75;;;;;;;;5032582;28;50979;-61
2022/07/19 12:02:49;;;;;;;;;9.50;9.00;;;;;;;;5026961;28;51122;-63
2022/07/19 12:07:50;;;;;;;;;9.75;9.25;;;;;;;;5125522;22;51297;-63
2022/07/19 12:10:34;;;;;;;;;11.00;11.00;;;;;;;;5040786;28;51291;-64
2022/07/19 12:13:00;;;;;;;;;11.00;11.00;;;;;;;;5045512;28;50969;-63
2022/07/19 12:15:25;;;;;;;;;10.25;10.25;;;;;;;;5043796;28;51234;-64
2022/07/19 12:17:57;;;;;;;;;11.25;11.00;;;;;;;;5048711;28;51844;-64
2022/07/19 12:20:22;;;;;;;;;10.25;10.25;;;;;;;;5050472;28;50958;-67
2022/07/19 12:22:47;;;;;;;;;8.50;8.50;;;;;;;;5044325;28;51149;-64
2022/07/19 12:25:12;;;;;;;;;12.75;11.75;;;;;;;;5024545;28;50978;-62
2022/07/19 12:27:40;;;;;;;;;10.50;10.25;;;;;;;;5046962;28;52030;-65
2022/07/19 12:30:06;;;;;;;;;11.25;10.00;;;;;;;;5027029;28;51148;-64
2022/07/19 12:32:31;;;;;;;;;12.50;12.25;;;;;;;;5050154;28;51072;-63
2022/07/19 12:35:09;;;;;;;;;8.00;7.50;;;;;;;;5048310;28;50953;-63
2022/07/19 12:37:36;;;;;;;;;10.25;10.25;;;;;;;;5041999;28;51142;-64
2022/07/19 12:40:10;;;;;;;;;11.50;11.00;;;;;;;;5051319;28;50921;-65
2022/07/19 12:42:37;;;;;;;;;10.50;9.25;;;;;;;;5050843;28;50927;-64
2022/07/19 12:45:04;;;;;;;;;11.75;11.50;;;;;;;;5051813;28;50960;-64
2022/07/19 12:47:29;;;;;;;;;11.00;9.75;;;;;;;;5049014;28;52059;-65
2022/07/19 12:49:54;;;;;;;;;11.00;11.00;;;;;;;;5048249;28;50818;-64
2022/07/19 12:52:19;;;;;;;;;14.00;9.25;;;;;;;;5051186;28;51120;-65
2022/07/19 12:54:44;;;;;;;;;10.75;10.25;;;;;;;;5049220;28;50962;-64
2022/07/19 12:57:10;;;;;;;;;12.75;12.75;;;;;;;;5032145;28;52762;-64
2022/07/19 12:59:41;;;;;;;;;13.00;12.25;;;;;;;;5032485;28;51014;-65
2022/07/19 13:02:08;;;;;;;;;14.75;14.25;;;;;;;;5037440;28;51135;-64
2022/07/19 13:04:34;;;;;;;;;14.75;14.00;;;;;;;;5048740;28;51246;-64
2022/07/19 13:06:59;;;;;;;;;10.50;10.50;;;;;;;;5039202;28;51791;-64
2022/07/19 13:09:24;;;;;;;;;11.75;11.75;;;;;;;;5049699;28;51075;-64
2022/07/19 13:11:49;;;;;;;;;14.00;14.00;;;;;;;;5048202;28;51421;-64
2022/07/19 13:14:15;;;;;;;;;12.00;11.75;;;;;;;;5043151;28;51154;-64
2022/07/19 13:16:40;;;;;;;;;11.50;11.50;;;;;;;;5041009;28;51068;-64
2022/07/19 13:19:06;;;;;;;;;13.00;12.00;;;;;;;;5050625;28;50997;-64
2022/07/19 13:21:31;;;;;;;;;19.00;19.00;;;;;;;;5046864;28;51278;-64
2022/07/19 13:23:56;;;;;;;;;14.25;13.25;;;;;;;;5050051;28;51181;-64
2022/07/19 13:26:22;;;;;;;;;11.75;11.00;;;;;;;;5043518;28;51179;-64
2022/07/19 13:28:47;;;;;;;;;11.50;11.50;;;;;;;;5043755;28;51153;-64
2022/07/19 13:31:12;;;;;;;;;13.50;12.25;;;;;;;;5044981;28;51239;-63
2022/07/19 13:33:37;;;;;;;;;19.25;17.75;;;;;;;;5034591;28;51313;-63
2022/07/19 13:36:03;;;;;;;;;16.00;12.75;;;;;;;;5039598;28;51885;-65
2022/07/19 13:38:28;;;;;;;;;13.25;13.25;;;;;;;;5017122;28;51143;-64
2022/07/19 13:40:53;;;;;;;;;13.25;12.50;;;;;;;;5051462;28;51290;-64
2022/07/19 13:43:18;;;;;;;;;12.75;12.00;;;;;;;;5042234;28;51140;-64
2022/07/19 13:45:44;;;;;;;;;11.00;11.00;;;;;;;;5043283;28;51876;-64
2022/07/19 13:48:09;;;;;;;;;15.25;14.00;;;;;;;;5035240;28;51020;-64
2022/07/19 13:50:36;;;;;;;;;13.00;12.75;;;;;;;;5040077;28;51169;-64
2022/07/19 13:53:01;;;;;;;;;16.25;15.75;;;;;;;;5047551;28;50984;-65
2022/07/19 13:55:26;;;;;;;;;17.50;16.50;;;;;;;;5026930;28;51186;-64
2022/07/19 13:57:52;;;;;;;;;16.00;15.00;;;;;;;;5053969;28;51055;-64
2022/07/19 14:00:17;;;;;;;;;13.75;13.75;;;;;;;;5053944;28;50933;-65
2022/07/19 14:02:43;;;;;;;;;16.50;14.75;;;;;;;;5054388;28;50872;-64
2022/07/19 14:05:08;;;;;;;;;18.00;17.75;;;;;;;;5053841;28;53174;-64
2022/07/19 14:07:34;;;;;;;;;19.25;19.25;;;;;;;;5051530;28;51245;-63
2022/07/19 14:09:59;;;;;;;;;20.25;20.00;;;;;;;;5045684;28;50957;-65
2022/07/19 14:12:24;;;;;;;;;17.25;16.50;;;;;;;;5042589;28;51151;-64
2022/07/19 14:14:50;;;;;;;;;17.25;17.25;;;;;;;;5052144;28;51230;-65
2022/07/19 14:17:16;;;;;;;;;17.25;16.75;;;;;;;;5049045;28;51025;-65
2022/07/19 14:19:42;;;;;;;;;14.25;13.75;;;;;;;;5054197;28;51138;-64
2022/07/19 14:22:07;;;;;;;;;20.25;19.75;;;;;;;;5036982;28;50937;-64
2022/07/19 14:24:33;;;;;;;;;16.00;15.00;;;;;;;;5046878;28;51455;-64
2022/07/19 14:26:58;;;;;;;;;15.25;15.25;;;;;;;;5033909;28;51052;-65